Terminal Aerodrome Forecast
Issued by NWS Charleston, WV

Current Version | Previous Version | Graphics & Text | Print | Product List | Glossary On
Versions: 1 2 3 4 5 6 7 8 9 10 11 12 13 14 15 16 17 18 19 20 21 22 23 24 25 26 27 28 29 30 31
000
FTUS41 KRLX 280700 AAA
TAFEKN
TAF AMD
KEKN 280720Z 2807/2906 29005KT 4SM -SN OVC015
     FM280900 28003KT P6SM BKN018
     FM281400 00000KT P6SM SCT025
     FM281600 29004KT P6SM SKC
     FM282300 00000KT P6SM SCT250=

USA.gov is the U.S. government's official web portal to all federal, state and local government web resources and services.